气象报文与情报通波
气象报文机场: ZHHH
ADDS - METARS form results

(0411 UTC 21 November 2019)
数据来源 http://aviationweather.gov/metar/data/
 
METAR text: ZHHH 210400Z 25002MPS 210V300 7000 NSC 16/05 Q1023 NOSIG
Conditions at: ZHHH (WUHAN/NANHU , CN) observed 0400 UTC 21 November 2019
Temperature: 16.0°C (61°F)
Dewpoint: 5.0°C (41°F) [RH = 48%]
Pressure (altimeter): 30.21 inches Hg (1023.0 mb)
Winds: from the WSW (250 degrees) at 5 MPH (4 knots; 2.1 m/s)
Visibility: 4 miles ( 7 km)
Ceiling: at least 12,000 feet AGL
Clouds: sky clear below 12,000 feet AGL
Weather: no significant weather observed at this time

Forecast for: ZHHH (WUHAN/NANHU , CN)
Text: TAF ZHHH 210303Z 2106/2206 10003MPS 6000 NSC TX18/2107Z TN07/2122Z
Forecast period: 0600 UTC 21 November 2019 to 0600 UTC 22 November 2019
Forecast type: FROM: standard forecast or significant change
Winds: from the E (100 degrees) at 7 MPH (6 knots; 3.1 m/s)
Visibility: 4 miles (6 km)
Ceiling: unknown
Clouds: missing
Weather: no significant weather forecast for this period

 机场地图

 跑道信息
跑道 04 跑道长度 11155 ft 跑道宽度 148 ft
跑道标高 95 ft 跑道內移距离 0 ft 跑道磁航向 42
跑道 22 跑道长度 11155 ft 跑道宽度 148 ft
跑道标高 112 ft 跑道內移距离 0 ft 跑道磁航向 222

 机场频率
类型 ATIS 名称 ATIS 频率 126.6 MHZ
类型 GND 名称 WUHAN GND 频率 121.65 MHZ
类型 TWR 名称 WUHAN TWR 频率 122.7 MHZ

 机场附近导航设备
类型 NDB 名称 Tianhe 频率 254 KHZ
类型 NDB 名称 Liangxiang 频率 475 KHZ
类型 NDB 名称 Huairou 频率 380 KHZ
类型 VOR-DME 名称 Tianhe 频率 112200 KHZ



© FlySim.cn中国最大航空飞行视频网版权所有